Time;durP1;ratioP1;P1;durP2;ratioP2;P2;SDS_P1;SDS_P2;PMS_P1;PMS_P2;Temp;Humidity;BMP_temperature;BMP_pressure;BME280_temperature;BME280_humidity;BME280_pressure;Samples;Min_cycle;Max_cycle;Signal;HPM_P1;HPM_P2
2021/10/12 00:02:24;;;;;;;;;3.00;3.00;;;;;17.46;69.83;100385.03;146598;583;46017;-74
2021/10/12 00:04:58;;;;;;;;;4.00;3.00;;;;;17.46;69.50;100380.69;146608;588;46010;-72
2021/10/12 00:07:32;;;;;;;;;3.00;3.00;;;;;17.42;69.54;100368.38;146606;569;47012;-73
2021/10/12 00:10:07;;;;;;;;;3.67;3.67;;;;;17.35;69.66;100371.72;146607;587;47012;-73
2021/10/12 00:12:41;;;;;;;;;4.00;3.00;;;;;17.29;69.53;100366.41;146606;626;47012;-74
2021/10/12 00:15:15;;;;;;;;;5.00;5.00;;;;;17.24;69.02;100354.94;146609;628;47010;-73
2021/10/12 00:17:49;;;;;;;;;2.33;2.33;;;;;17.21;69.03;100347.91;146604;607;46032;-74
2021/10/12 00:20:23;;;;;;;;;4.67;4.67;;;;;17.20;69.93;100347.91;146605;608;46021;-74
2021/10/12 00:22:57;;;;;;;;;3.00;3.00;;;;;17.22;70.03;100343.56;146604;594;46016;-72
2021/10/12 00:25:31;;;;;;;;;3.00;3.00;;;;;17.25;69.50;100334.00;146607;576;46012;-71
2021/10/12 00:28:05;;;;;;;;;3.00;3.00;;;;;17.30;69.52;100327.12;146606;641;45914;-71
2021/10/12 00:30:39;;;;;;;;;3.33;3.00;;;;;17.33;69.67;100326.28;146605;579;46020;-72
2021/10/12 00:33:13;;;;;;;;;4.00;2.33;;;;;17.34;70.62;100330.66;146605;626;47012;-71
2021/10/12 00:35:47;;;;;;;;;5.00;5.00;;;;;17.37;70.01;100327.22;146608;589;46021;-72
2021/10/12 00:38:22;;;;;;;;;6.67;4.67;;;;;17.40;70.23;100332.53;146605;581;46016;-72
2021/10/12 00:40:56;;;;;;;;;4.00;4.00;;;;;17.42;70.33;100320.34;146605;562;46021;-71
2021/10/12 00:43:30;;;;;;;;;4.67;3.33;;;;;17.44;70.49;100318.59;146605;581;46016;-72
2021/10/12 00:46:05;;;;;;;;;6.00;5.00;;;;;17.41;70.56;100316.81;146610;633;46010;-72
2021/10/12 00:48:38;;;;;;;;;5.00;4.00;;;;;17.40;71.08;100307.19;146603;632;46025;-71
2021/10/12 00:51:12;;;;;;;;;4.67;4.33;;;;;17.34;71.14;100309.69;146606;565;46020;-72
2021/10/12 00:53:54;;;;;;;;;5.00;5.00;;;;;17.24;70.93;100300.81;146606;608;46020;-71
2021/10/12 00:56:28;;;;;;;;;5.33;5.33;;;;;17.19;70.93;100297.22;146604;612;46021;-72
2021/10/12 00:59:02;;;;;;;;;4.00;4.00;;;;;17.16;70.99;100297.16;146604;613;46032;-72
2021/10/12 01:01:36;;;;;;;;;3.00;3.00;;;;;17.16;71.15;100284.06;146605;571;46020;-72
2021/10/12 01:04:11;;;;;;;;;5.33;4.67;;;;;17.18;71.40;100286.72;146603;644;47016;-71
2021/10/12 01:06:45;;;;;;;;;4.67;4.00;;;;;17.13;71.33;100283.12;146608;650;45022;-71
2021/10/12 01:09:19;;;;;;;;;4.33;4.33;;;;;17.05;71.55;100283.00;146602;612;47013;-71
2021/10/12 01:11:53;;;;;;;;;4.00;4.00;;;;;17.01;71.14;100281.19;146607;620;46020;-71
2021/10/12 01:14:27;;;;;;;;;5.00;5.00;;;;;16.93;70.58;100270.56;146604;628;46033;-71
2021/10/12 01:17:01;;;;;;;;;6.00;5.00;;;;;16.90;71.02;100267.00;146609;564;47012;-71
2021/10/12 01:19:35;;;;;;;;;3.67;3.67;;;;;16.90;71.08;100274.87;146601;564;46033;-72
2021/10/12 01:22:09;;;;;;;;;4.00;4.00;;;;;16.90;71.15;100277.50;146606;571;46012;-71
2021/10/12 01:24:43;;;;;;;;;4.75;3.75;;;;;16.90;71.35;100278.38;146604;573;46012;-70
2021/10/12 01:27:17;;;;;;;;;6.67;5.00;;;;;16.89;71.08;100268.75;146607;574;46020;-71
2021/10/12 01:29:51;;;;;;;;;5.00;4.75;;;;;16.79;71.06;100270.31;146605;584;46016;-71
2021/10/12 01:32:25;;;;;;;;;7.00;4.50;;;;;16.70;70.72;100262.25;146602;680;47012;-73
2021/10/12 01:35:03;;;;;;;;;5.33;4.00;;;;;16.61;70.71;100260.34;146604;675;46016;-73
2021/10/12 01:37:38;;;;;;;;;3.50;3.50;;;;;16.55;71.36;100262.84;146606;704;46026;-72
2021/10/12 01:40:19;;;;;;;;;5.00;5.00;;;;;16.48;71.20;100258.34;146604;579;46018;-73
2021/10/12 01:42:53;;;;;;;;;4.33;3.33;;;;;16.45;71.43;100260.00;146610;598;45020;-73
2021/10/12 01:45:27;;;;;;;;;4.50;4.50;;;;;16.40;71.68;100252.94;146603;588;46016;-74
2021/10/12 01:48:01;;;;;;;;;5.75;4.00;;;;;16.35;72.66;100259.84;146603;590;46021;-74
2021/10/12 01:50:35;;;;;;;;;3.67;3.67;;;;;16.34;71.96;100244.09;146604;563;46016;-75
2021/10/12 01:53:09;;;;;;;;;5.33;3.67;;;;;16.38;71.99;100251.13;146605;593;46020;-75
2021/10/12 01:55:43;;;;;;;;;6.00;4.75;;;;;16.37;71.81;100254.63;146604;658;47914;-74
2021/10/12 01:58:17;;;;;;;;;4.67;4.33;;;;;16.38;71.83;100256.38;146608;579;46020;-74
2021/10/12 02:00:51;;;;;;;;;5.00;3.67;;;;;16.37;72.19;100265.97;146605;587;46914;-74
2021/10/12 02:03:25;;;;;;;;;5.00;5.00;;;;;16.34;72.13;100272.88;146606;564;47010;-72
2021/10/12 02:05:59;;;;;;;;;5.67;4.67;;;;;16.30;72.48;100266.69;146602;579;47016;-72
2021/10/12 02:08:33;;;;;;;;;5.00;5.00;;;;;16.32;72.03;100261.47;146609;586;45045;-72
2021/10/12 02:11:06;;;;;;;;;4.00;3.33;;;;;16.34;72.10;100265.03;146601;634;46019;-72
2021/10/12 02:13:41;;;;;;;;;4.75;4.75;;;;;15.33;72.57;100085.97;146602;593;46020;-78
2021/10/12 02:16:15;;;;;;;;;5.25;5.25;;;;;16.41;72.12;100272.13;146603;683;46017;-79
2021/10/12 02:18:48;;;;;;;;;5.00;4.67;;;;;16.43;72.14;100264.34;146607;569;46012;-80
2021/10/12 02:21:22;;;;;;;;;5.00;5.00;;;;;16.45;72.30;100270.47;146602;577;47018;-77
2021/10/12 02:23:56;;;;;;;;;5.67;5.33;;;;;16.45;72.15;100263.53;146603;670;47013;-76
2021/10/12 02:26:30;;;;;;;;;8.33;6.33;;;;;16.47;72.91;100276.62;146600;569;47012;-87
2021/10/12 02:29:04;;;;;;;;;6.00;6.00;;;;;16.45;72.34;100275.69;146607;597;46020;-87
2021/10/12 02:31:38;;;;;;;;;7.25;5.50;;;;;16.43;72.18;100278.28;146602;575;46016;-87
2021/10/12 02:34:12;;;;;;;;;7.00;5.00;;;;;16.42;71.96;100288.72;146608;585;46020;-86
2021/10/12 02:36:46;;;;;;;;;5.67;5.67;;;;;16.44;71.98;100294.87;146605;582;46012;-88
2021/10/12 02:39:20;;;;;;;;;7.67;6.00;;;;;16.52;72.63;100311.63;146606;603;46012;-86
2021/10/12 02:41:54;;;;;;;;;6.00;6.00;;;;;16.59;73.51;100319.63;146604;569;47012;-86
2021/10/12 02:44:28;;;;;;;;;8.00;5.00;;;;;16.65;73.99;100318.87;146604;646;46020;-86
2021/10/12 02:47:02;;;;;;;;;9.33;8.00;;;;;16.67;74.04;100316.28;146604;619;46017;-85
2021/10/12 02:49:36;;;;;;;;;5.67;5.67;;;;;16.68;74.09;100318.06;146608;588;46020;-86
2021/10/12 02:52:10;;;;;;;;;7.33;5.67;;;;;16.67;73.87;100321.53;146602;622;46016;-84
2021/10/12 02:54:44;;;;;;;;;4.67;4.67;;;;;16.67;73.70;100332.88;146606;605;46021;-85
2021/10/12 02:57:18;;;;;;;;;9.00;7.67;;;;;16.67;73.95;100337.25;146603;586;46016;-85
2021/10/12 02:59:51;;;;;;;;;7.75;7.50;;;;;16.66;73.40;100345.94;146605;594;46905;-84
2021/10/12 03:02:27;;;;;;;;;9.33;8.33;;;;;16.66;74.13;100349.41;146607;587;46013;-85
2021/10/12 03:05:01;;;;;;;;;8.00;8.00;;;;;16.66;74.01;100351.16;146602;591;46020;-85
2021/10/12 03:07:35;;;;;;;;;8.00;6.67;;;;;16.63;73.91;100345.03;146602;589;46017;-83
2021/10/12 03:10:10;;;;;;;;;9.67;7.33;;;;;16.60;73.18;100347.59;146604;605;47009;-85
2021/10/12 03:12:43;;;;;;;;;10.00;7.25;;;;;16.58;73.32;100345.78;146603;616;47913;-84
2021/10/12 03:15:17;;;;;;;;;7.50;6.75;;;;;16.59;72.88;100345.78;146601;669;47012;-83
2021/10/12 03:17:51;;;;;;;;;8.25;6.25;;;;;16.60;72.90;100352.81;146604;700;46016;-84
2021/10/12 03:20:25;;;;;;;;;9.50;7.50;;;;;16.65;73.60;100357.25;146606;694;45022;-85
2021/10/12 03:22:59;;;;;;;;;9.50;8.50;;;;;16.63;73.85;100358.13;146609;668;45914;-84
2021/10/12 03:25:33;;;;;;;;;8.25;8.00;;;;;16.66;72.85;100369.50;146609;679;46010;-85
2021/10/12 03:28:07;;;;;;;;;8.75;7.00;;;;;16.67;73.39;100369.53;146600;569;47020;-84
2021/10/12 03:30:41;;;;;;;;;9.50;8.00;;;;;16.66;74.12;100366.88;146604;582;46020;-84
2021/10/12 03:33:15;;;;;;;;;9.75;9.75;;;;;16.62;74.59;100361.56;146603;576;46016;-82
2021/10/12 03:35:57;;;;;;;;;11.50;10.50;;;;;16.57;74.94;100364.94;146606;569;47010;-82
2021/10/12 03:38:32;;;;;;;;;9.50;8.75;;;;;16.49;75.82;100363.91;146602;584;47914;-82
2021/10/12 03:41:06;;;;;;;;;6.00;6.00;;;;;16.39;75.22;100370.69;146608;634;45020;-84
2021/10/12 03:43:40;;;;;;;;;8.50;5.00;;;;;16.33;74.76;100371.41;146601;599;47020;-83
2021/10/12 03:46:14;;;;;;;;;5.67;5.00;;;;;16.34;74.96;100372.31;146608;723;46021;-84
2021/10/12 03:48:48;;;;;;;;;5.00;5.00;;;;;16.36;74.80;100379.34;146604;635;46016;-84
2021/10/12 03:51:22;;;;;;;;;5.50;5.25;;;;;16.39;74.82;100371.56;146606;642;47008;-84
2021/10/12 03:53:56;;;;;;;;;7.00;7.00;;;;;16.42;75.18;100360.28;146604;655;46016;-83
2021/10/12 03:56:30;;;;;;;;;6.33;6.00;;;;;16.45;75.06;100364.66;146606;594;45022;-83
2021/10/12 03:59:03;;;;;;;;;5.00;5.00;;;;;16.46;74.59;100354.25;146602;565;47012;-83
2021/10/12 04:01:37;;;;;;;;;5.00;5.00;;;;;16.46;75.08;100356.88;146606;633;47010;-83
2021/10/12 04:04:11;;;;;;;;;4.00;4.00;;;;;16.48;75.26;100377.81;146601;627;47913;-83
2021/10/12 04:06:45;;;;;;;;;6.50;6.25;;;;;16.47;75.12;100376.06;146604;582;46020;-83
2021/10/12 04:09:19;;;;;;;;;6.00;5.00;;;;;16.47;74.40;100376.06;146603;612;46016;-83
2021/10/12 04:11:53;;;;;;;;;5.00;5.00;;;;;16.44;74.13;100374.25;146606;618;46020;-83
2021/10/12 04:14:27;;;;;;;;;5.33;4.67;;;;;16.40;74.11;100370.69;146603;590;47020;-83
2021/10/12 04:17:01;;;;;;;;;5.25;4.25;;;;;16.37;74.19;100365.41;146603;657;46021;-84
2021/10/12 04:19:34;;;;;;;;;6.33;5.33;;;;;16.32;73.86;100353.06;146604;598;47012;-82
2021/10/12 04:22:08;;;;;;;;;4.00;3.00;;;;;16.30;74.24;100346.94;146605;612;46020;-82
2021/10/12 04:24:42;;;;;;;;;3.33;3.00;;;;;16.30;74.28;100346.94;146600;660;46014;-82
2021/10/12 04:27:17;;;;;;;;;4.00;4.00;;;;;16.28;74.02;100338.16;146606;566;46010;-83
2021/10/12 04:29:51;;;;;;;;;3.00;3.00;;;;;16.24;74.15;100338.94;146603;566;47013;-83
2021/10/12 04:32:25;;;;;;;;;3.67;2.67;;;;;16.16;74.15;100344.00;146602;571;47012;-82
2021/10/12 04:34:58;;;;;;;;;3.33;2.33;;;;;16.08;73.39;100333.38;146605;676;46012;-84
2021/10/12 04:37:32;;;;;;;;;2.33;2.00;;;;;16.05;73.85;100325.44;146605;685;46021;-83
2021/10/12 04:40:07;;;;;;;;;2.67;2.67;;;;;16.03;73.66;100318.41;146604;627;46017;-84
2021/10/12 04:42:41;;;;;;;;;3.00;2.33;;;;;16.00;73.54;100319.22;146607;615;47012;-84
2021/10/12 04:45:15;;;;;;;;;4.00;2.33;;;;;15.99;73.72;100301.78;146605;582;46017;-83
2021/10/12 04:47:49;;;;;;;;;5.00;4.00;;;;;15.98;73.60;100302.63;146608;572;45023;-84
2021/10/12 04:50:23;;;;;;;;;7.67;6.33;;;;;15.98;73.80;100296.50;146597;586;47016;-85
2021/10/12 04:52:57;;;;;;;;;17.75;14.50;;;;;15.98;73.87;100292.19;146606;621;46011;-84
2021/10/12 04:55:30;;;;;;;;;8.67;8.33;;;;;16.01;73.79;100293.94;146604;582;47012;-84
2021/10/12 04:58:04;;;;;;;;;4.33;4.33;;;;;16.02;74.97;100278.31;146606;575;47010;-83
2021/10/12 05:00:38;;;;;;;;;9.50;8.75;;;;;16.04;74.35;100267.87;146602;579;46017;-85
2021/10/12 05:03:12;;;;;;;;;5.00;4.00;;;;;16.04;74.81;100257.41;146607;613;46020;-84
2021/10/12 05:05:46;;;;;;;;;5.00;5.00;;;;;16.03;74.60;100248.69;146605;573;46016;-84
2021/10/12 05:08:20;;;;;;;;;3.00;1.67;;;;;16.05;74.89;100246.12;146608;581;46021;-83
2021/10/12 05:10:54;;;;;;;;;3.33;3.33;;;;;16.10;75.05;100252.31;146605;582;46016;-84
2021/10/12 05:13:28;;;;;;;;;3.33;3.33;;;;;16.12;75.54;100256.72;146603;631;47022;-83
2021/10/12 05:16:04;;;;;;;;;3.00;2.00;;;;;16.18;75.26;100250.75;146608;648;46012;-85
2021/10/12 05:18:39;;;;;;;;;3.00;3.00;;;;;16.28;74.80;100242.22;146606;650;46020;-84
2021/10/12 05:21:13;;;;;;;;;2.33;2.33;;;;;16.35;74.57;100227.53;146604;585;46016;-83
2021/10/12 05:23:47;;;;;;;;;2.00;2.00;;;;;16.35;74.37;100214.44;146607;570;47010;-83
2021/10/12 05:26:22;;;;;;;;;4.00;3.00;;;;;16.32;74.59;100207.44;146604;605;46016;-84
2021/10/12 05:28:56;;;;;;;;;3.00;3.00;;;;;16.31;75.45;100207.41;146603;586;46020;-83
2021/10/12 05:31:30;;;;;;;;;3.00;3.00;;;;;16.26;75.03;100214.25;146605;604;46034;-82
2021/10/12 05:34:04;;;;;;;;;4.00;3.00;;;;;16.19;75.46;100220.22;146607;612;46020;-84
2021/10/12 05:36:38;;;;;;;;;7.67;7.67;;;;;16.13;76.45;100208.78;146603;617;46016;-83
2021/10/12 05:39:12;;;;;;;;;9.00;8.00;;;;;16.12;76.17;100212.25;146604;700;46012;-83
2021/10/12 05:41:46;;;;;;;;;6.00;6.00;;;;;16.13;75.77;100208.78;146603;638;46034;-83
2021/10/12 05:44:20;;;;;;;;;7.00;7.00;;;;;16.18;75.33;100198.44;146608;632;46010;-84
2021/10/12 05:46:54;;;;;;;;;7.33;6.00;;;;;16.24;75.47;100223.84;146606;570;46016;-83
2021/10/12 05:49:28;;;;;;;;;8.00;7.00;;;;;16.27;76.42;100236.97;146608;564;46020;-84
2021/10/12 05:52:03;;;;;;;;;8.00;7.00;;;;;16.28;76.08;100241.34;146603;691;46016;-83
2021/10/12 05:54:43;;;;;;;;;9.33;7.33;;;;;16.27;75.26;100229.12;146605;630;47010;-83
2021/10/12 05:57:34;;;;;;;;;7.00;6.75;;;;;16.27;75.17;100230.00;146603;592;47012;-83
2021/10/12 06:00:09;;;;;;;;;7.00;7.00;;;;;16.31;75.52;100233.56;146608;571;46021;-82
2021/10/12 06:02:43;;;;;;;;;9.00;6.67;;;;;16.33;75.33;100240.59;146602;638;46016;-83
2021/10/12 06:05:17;;;;;;;;;8.33;7.00;;;;;16.34;75.15;100238.84;146602;644;46020;-84
2021/10/12 06:07:50;;;;;;;;;7.75;7.25;;;;;16.32;75.62;100223.16;146601;642;46017;-83
2021/10/12 06:10:25;;;;;;;;;9.50;8.50;;;;;16.33;75.64;100221.41;146609;581;46010;-83
2021/10/12 06:12:59;;;;;;;;;11.50;9.75;;;;;16.34;75.84;100215.31;146602;629;47914;-83
2021/10/12 06:15:33;;;;;;;;;9.00;7.75;;;;;16.37;75.87;100203.16;146607;704;46011;-83
2021/10/12 06:18:08;;;;;;;;;7.33;7.33;;;;;16.39;75.75;100190.13;146606;585;45913;-84
2021/10/12 06:20:42;;;;;;;;;6.33;6.33;;;;;16.42;75.08;100195.44;146606;576;46020;-83
2021/10/12 06:23:16;;;;;;;;;7.33;7.33;;;;;16.47;75.62;100183.28;146604;673;46017;-82
2021/10/12 06:25:53;;;;;;;;;7.33;6.33;;;;;15.17;76.23;99955.87;146604;620;46020;-82
2021/10/12 06:28:29;;;;;;;;;7.00;6.25;;;;;16.61;75.84;100197.53;146602;609;47012;-83
2021/10/12 06:31:03;;;;;;;;;7.00;6.75;;;;;16.76;75.62;100190.81;146603;566;46024;-84
2021/10/12 06:33:37;;;;;;;;;8.00;8.00;;;;;16.98;74.99;100194.72;146605;634;46012;-83
2021/10/12 06:36:11;;;;;;;;;9.00;8.00;;;;;17.17;74.48;100201.12;146606;661;46016;-82
2021/10/12 06:38:45;;;;;;;;;7.33;7.00;;;;;17.37;73.52;100199.69;146605;586;47012;-83
2021/10/12 06:41:20;;;;;;;;;7.00;7.00;;;;;17.52;73.24;100205.16;146604;576;47012;-81
2021/10/12 06:43:54;;;;;;;;;9.00;7.50;;;;;17.66;72.85;100205.38;146602;588;47914;-83
2021/10/12 06:46:28;;;;;;;;;8.67;7.00;;;;;17.75;72.12;100212.47;146609;564;46010;-82
2021/10/12 06:49:02;;;;;;;;;7.00;6.00;;;;;17.91;72.49;100208.34;146603;646;46016;-84
2021/10/12 06:51:36;;;;;;;;;7.33;7.33;;;;;18.17;71.91;100219.19;146608;617;46008;-83
2021/10/12 06:54:09;;;;;;;;;8.00;7.00;;;;;18.50;70.85;100217.81;146605;642;46016;-84
2021/10/12 06:56:43;;;;;;;;;8.00;6.33;;;;;18.90;70.03;100219.13;146605;668;46020;-83
2021/10/12 06:59:17;;;;;;;;;6.00;6.00;;;;;19.28;68.73;100229.97;146601;590;47012;-83
2021/10/12 07:01:52;;;;;;;;;5.67;5.67;;;;;19.56;68.02;100233.69;146608;581;45022;-83
2021/10/12 07:04:25;;;;;;;;;4.33;3.67;;;;;19.65;66.40;100230.25;146603;615;46016;-82
2021/10/12 07:07:00;;;;;;;;;3.67;3.67;;;;;19.65;66.48;100253.91;146607;579;46012;-83
2021/10/12 07:09:34;;;;;;;;;6.00;6.00;;;;;19.62;66.18;100254.78;146602;574;46016;-78
2021/10/12 07:12:10;;;;;;;;;5.00;5.00;;;;;19.57;67.21;100258.25;146607;569;47012;-79
2021/10/12 07:14:44;;;;;;;;;5.00;5.00;;;;;19.51;66.34;100252.94;146601;573;47012;-79
2021/10/12 07:17:18;;;;;;;;;8.67;6.00;;;;;19.49;67.11;100258.16;146605;575;46020;-74
2021/10/12 07:19:52;;;;;;;;;5.00;5.00;;;;;19.44;66.52;100259.00;146604;610;47013;-76
2021/10/12 07:22:26;;;;;;;;;5.67;4.67;;;;;19.41;66.81;100259.88;146605;582;46906;-77
2021/10/12 07:25:02;;;;;;;;;4.33;4.33;;;;;19.42;67.47;100266.88;146604;593;46016;-78
2021/10/12 07:27:38;;;;;;;;;4.33;4.33;;;;;19.48;68.01;100276.56;146606;566;46020;-76
2021/10/12 07:30:13;;;;;;;;;5.67;5.67;;;;;19.49;67.65;100267.81;146604;675;46016;-77
2021/10/12 07:32:47;;;;;;;;;7.67;5.00;;;;;19.48;66.62;100271.31;146607;602;46030;-77
2021/10/12 07:35:20;;;;;;;;;4.67;4.67;;;;;19.45;66.85;100269.53;146601;650;47914;-76
2021/10/12 07:37:55;;;;;;;;;4.00;3.00;;;;;19.42;65.25;100276.53;146606;573;46020;-81
2021/10/12 07:40:29;;;;;;;;;3.67;3.67;;;;;19.38;65.65;100276.50;146603;620;46016;-82
2021/10/12 07:43:03;;;;;;;;;4.67;4.00;;;;;19.39;65.60;100273.00;146606;564;46031;-81
2021/10/12 07:45:37;;;;;;;;;2.00;2.00;;;;;19.41;66.18;100275.66;146604;581;47012;-80
2021/10/12 07:48:11;;;;;;;;;3.00;3.00;;;;;19.44;66.18;100280.94;146604;609;46020;-80
2021/10/12 07:50:45;;;;;;;;;3.67;3.00;;;;;19.49;66.43;100270.44;146604;572;46013;-81
2021/10/12 07:53:19;;;;;;;;;4.00;4.00;;;;;19.53;64.95;100275.75;146609;599;46010;-80
2021/10/12 07:55:56;;;;;;;;;3.33;1.67;;;;;19.66;65.02;100275.84;146603;694;46016;-84
2021/10/12 07:58:30;;;;;;;;;2.00;2.00;;;;;19.69;64.22;100271.50;146606;604;46021;-82
2021/10/12 08:01:07;;;;;;;;;2.00;2.00;;;;;19.73;64.36;100280.28;146604;600;46016;-82
2021/10/12 08:03:43;;;;;;;;;3.00;3.00;;;;;19.86;64.30;100278.63;146604;568;46020;-82
2021/10/12 08:06:16;;;;;;;;;3.00;3.00;;;;;20.18;65.24;100276.16;146605;596;46017;-81
2021/10/12 08:08:50;;;;;;;;;3.00;3.00;;;;;20.57;62.70;100278.13;146607;580;46020;-81
2021/10/12 08:11:25;;;;;;;;;2.67;2.67;;;;;20.89;62.98;100280.84;146603;613;46017;-81
2021/10/12 08:14:03;;;;;;;;;4.00;3.33;;;;;21.14;63.82;100284.37;146605;597;47011;-83
2021/10/12 08:16:37;;;;;;;;;0.33;0.33;;;;;21.30;61.57;100284.41;146604;628;46018;-81
2021/10/12 08:19:11;;;;;;;;;0.33;0.33;;;;;21.29;60.05;100278.25;146607;611;47010;-82
2021/10/12 08:21:46;;;;;;;;;0.67;0.67;;;;;21.35;62.38;100266.84;146606;590;46012;-82
2021/10/12 08:24:20;;;;;;;;;3.00;2.00;;;;;21.49;60.70;100270.38;146606;578;46012;-81
2021/10/12 08:26:55;;;;;;;;;1.00;1.00;;;;;21.59;61.92;100266.88;146604;677;46017;-84
2021/10/12 08:29:29;;;;;;;;;0.67;0.67;;;;;21.78;61.66;100264.19;146607;603;46012;-82
2021/10/12 08:32:03;;;;;;;;;1.67;1.67;;;;;22.01;61.27;100266.78;146603;572;46016;-81
2021/10/12 08:34:37;;;;;;;;;1.33;1.00;;;;;22.28;59.03;100268.50;146607;650;46012;-82
2021/10/12 08:37:11;;;;;;;;;2.00;2.00;;;;;22.47;57.78;100270.16;146607;597;46012;-83
2021/10/12 08:39:55;;;;;;;;;2.00;2.00;;;;;22.55;56.58;100271.00;146607;572;46010;-84
2021/10/12 08:42:42;;;;;;;;;1.33;0.67;;;;;22.41;57.33;100267.53;146605;586;46019;-84
2021/10/12 08:45:17;;;;;;;;;1.67;1.00;;;;;22.23;57.13;100263.22;146609;591;46012;-84
2021/10/12 08:47:52;;;;;;;;;0.33;0.33;;;;;22.22;57.44;100257.94;146605;581;47013;-82
2021/10/12 08:50:27;;;;;;;;;0.00;0.00;;;;;22.35;55.72;100260.53;146605;587;46021;-82
2021/10/12 08:53:02;;;;;;;;;1.00;1.00;;;;;22.50;55.68;100243.72;146603;597;46016;-84
2021/10/12 08:55:37;;;;;;;;;0.00;0.00;;;;;22.66;55.30;100247.16;146610;615;46010;-83
2021/10/12 08:58:14;;;;;;;;;0.00;0.00;;;;;22.91;55.79;100250.53;146601;720;46016;-83
2021/10/12 09:00:48;;;;;;;;;0.00;0.00;;;;;23.17;53.32;100255.66;146607;572;47010;-85
2021/10/12 09:04:02;;;;;;;;;0.00;0.00;;;;;23.34;53.75;100250.25;146601;734;46017;-83
2021/10/12 09:06:37;;;;;;;;;0.00;0.00;;;;;23.55;51.51;100253.56;146601;613;46020;-86
2021/10/12 09:09:15;;;;;;;;;0.00;0.00;;;;;23.71;51.11;100253.44;146604;580;46018;-83
2021/10/12 09:11:50;;;;;;;;;0.00;0.00;;;;;23.86;51.95;100241.84;146605;600;46021;-84
2021/10/12 09:14:23;;;;;;;;;0.00;0.00;;;;;24.04;52.74;100231.91;146603;676;46016;-84
2021/10/12 09:17:07;;;;;;;;;0.00;0.00;;;;;24.23;53.30;100238.72;146608;591;46010;-83
2021/10/12 09:19:43;;;;;;;;;0.00;0.00;;;;;24.41;48.27;100229.66;146604;597;47914;-84
2021/10/12 09:22:17;;;;;;;;;0.00;0.00;;;;;24.40;49.81;100228.81;146608;654;46020;-87
2021/10/12 09:24:51;;;;;;;;;0.00;0.00;;;;;24.42;48.89;100219.09;146604;579;47012;-85
2021/10/12 09:27:27;;;;;;;;;0.00;0.00;;;;;24.52;48.43;100205.72;146607;649;46020;-85
2021/10/12 09:30:10;;;;;;;;;0.00;0.00;;;;;24.68;51.21;100203.72;146604;587;46914;-87
2021/10/12 09:32:44;;;;;;;;;0.67;0.00;;;;;24.89;48.78;100198.06;146607;579;46020;-89
2021/10/12 09:35:30;;;;;;;;;0.00;0.00;;;;;25.12;50.42;100184.44;146603;628;46017;-88
2021/10/12 09:38:06;;;;;;;;;0.00;0.00;;;;;25.34;49.10;100180.53;146606;719;46020;-84
2021/10/12 09:40:41;;;;;;;;;0.33;0.00;;;;;25.58;47.77;100178.34;146602;594;46017;-88
2021/10/12 09:43:21;;;;;;;;;0.00;0.00;;;;;25.69;46.00;100178.12;146605;591;46020;-84
2021/10/12 09:45:55;;;;;;;;;0.00;0.00;;;;;25.63;47.49;100173.81;146604;573;47012;-78
2021/10/12 09:48:35;;;;;;;;;0.00;0.00;;;;;25.64;48.14;100175.56;146604;586;47013;-81
2021/10/12 09:51:19;;;;;;;;;0.00;0.00;;;;;25.69;48.30;100170.16;146606;584;47012;-79
2021/10/12 09:53:54;;;;;;;;;1.00;0.00;;;;;25.73;46.60;100167.44;146605;576;46020;-81
2021/10/12 09:56:28;;;;;;;;;0.00;0.00;;;;;25.75;47.11;100168.25;146601;581;46016;-81
2021/10/12 09:59:02;;;;;;;;;1.33;0.33;;;;;25.82;48.53;100173.47;146601;566;46020;-82
2021/10/12 10:01:36;;;;;;;;;0.00;0.00;;;;;25.88;45.25;100160.94;146605;570;47013;-81
2021/10/12 10:04:11;;;;;;;;;0.00;0.00;;;;;25.91;44.66;100165.31;146607;661;46020;-82
2021/10/12 10:06:47;;;;;;;;;0.00;0.00;;;;;25.92;45.07;100165.31;146603;580;46016;-81
2021/10/12 10:09:25;;;;;;;;;0.00;0.00;;;;;25.94;45.05;100162.59;146605;645;46021;-84
2021/10/12 10:12:00;;;;;;;;;0.00;0.00;;;;;25.97;45.13;100159.88;146603;598;47914;-84
2021/10/12 10:14:36;;;;;;;;;0.00;0.00;;;;;25.99;47.03;100166.06;146605;694;46020;-83
2021/10/12 10:17:11;;;;;;;;;0.00;0.00;;;;;26.05;47.05;100163.28;146602;578;46016;-82
2021/10/12 10:19:48;;;;;;;;;0.00;0.00;;;;;26.12;45.63;100167.53;146607;757;46021;-82
2021/10/12 10:22:49;;;;;;;;;0.00;0.00;;;;;26.16;49.40;100155.91;146605;631;46016;-84
2021/10/12 10:25:48;;;;;;;;;0.33;0.33;;;;;26.00;47.79;100147.41;146607;671;46021;-83
2021/10/12 10:28:27;;;;;;;;;0.00;0.00;;;;;26.01;44.38;100157.16;146602;571;46016;-82
2021/10/12 10:31:05;;;;;;;;;0.00;0.00;;;;;25.91;44.32;100154.69;146607;580;47010;-82
2021/10/12 10:33:40;;;;;;;;;0.00;0.00;;;;;25.86;45.53;100151.25;146604;573;46016;-82
2021/10/12 10:36:15;;;;;;;;;1.00;0.00;;;;;25.89;47.13;100145.87;146604;634;46020;-83
2021/10/12 10:39:02;;;;;;;;;0.00;0.00;;;;;25.93;46.30;100147.59;146603;617;47013;-81
2021/10/12 10:41:40;;;;;;;;;0.00;0.00;;;;;25.90;43.28;100137.91;146607;628;46020;-83
2021/10/12 10:44:14;;;;;;;;;0.00;0.00;;;;;25.75;44.35;100144.34;146601;575;46016;-82
2021/10/12 10:46:48;;;;;;;;;0.00;0.00;;;;;25.63;44.30;100130.47;146608;577;47011;-80
2021/10/12 10:49:35;;;;;;;;;0.00;0.00;;;;;25.50;46.18;100146.63;146603;566;46016;-80
2021/10/12 10:52:36;;;;;;;;;0.00;0.00;;;;;25.48;47.15;100132.53;146600;594;46020;-82
2021/10/12 10:55:12;;;;;;;;;0.00;0.00;;;;;25.60;43.01;100139.34;146603;574;47012;-80
2021/10/12 10:58:25;;;;;;;;;0.00;0.00;;;;;24.72;49.00;99967.69;146610;664;46010;-82
2021/10/12 11:01:00;;;;;;;;;0.00;0.00;;;;;25.85;45.45;100117.66;146601;599;46016;-80
2021/10/12 11:03:40;;;;;;;;;0.00;0.00;;;;;25.95;45.09;100128.06;146605;564;46021;-81
2021/10/12 11:06:22;;;;;;;;;0.33;0.33;;;;;25.81;43.51;100122.16;146603;655;46016;-82
2021/10/12 11:09:04;;;;;;;;;1.67;0.33;;;;;25.63;46.74;100123.34;146607;616;46021;-81
2021/10/12 11:11:40;;;;;;;;;0.33;0.33;;;;;25.54;45.30;100124.41;146604;587;47012;-81
2021/10/12 11:14:14;;;;;;;;;0.00;0.00;;;;;25.55;44.12;100120.00;146608;635;46020;-80
2021/10/12 11:16:48;;;;;;;;;0.33;0.33;;;;;25.40;45.72;100122.97;146602;686;47012;-80
2021/10/12 11:19:22;;;;;;;;;0.33;0.33;;;;;25.26;45.60;100110.78;146603;611;47012;-84
2021/10/12 11:21:59;;;;;;;;;4.33;2.33;;;;;25.18;44.56;100109.22;146605;645;46016;-80
2021/10/12 11:24:33;;;;;;;;;1.00;0.67;;;;;25.17;44.39;100112.75;146607;668;46021;-83
2021/10/12 11:27:07;;;;;;;;;2.00;0.67;;;;;25.17;46.18;100113.66;146605;569;46016;-85
2021/10/12 11:29:41;;;;;;;;;0.33;0.33;;;;;25.17;45.98;100113.66;146611;586;46010;-84
2021/10/12 11:32:15;;;;;;;;;0.00;0.00;;;;;25.20;47.50;100104.75;146605;569;46017;-84
2021/10/12 11:34:55;;;;;;;;;3.33;2.33;;;;;25.34;49.13;100111.53;146607;677;46031;-85
2021/10/12 11:37:29;;;;;;;;;0.67;0.67;;;;;25.46;46.43;100110.44;146605;670;46016;-85
2021/10/12 11:40:22;;;;;;;;;0.33;0.33;;;;;25.40;46.91;100107.03;146606;656;46021;-90
2021/10/12 11:42:59;;;;;;;;;2.33;1.67;;;;;25.25;45.77;100108.19;146603;572;46016;-86
2021/10/12 11:45:34;;;;;;;;;4.00;0.67;;;;;25.12;45.25;100107.50;146606;560;47013;-88
2021/10/12 11:48:22;;;;;;;;;0.33;0.33;;;;;24.97;47.75;100095.41;146606;592;46012;-87
2021/10/12 11:51:22;;;;;;;;;2.33;2.33;;;;;24.88;47.93;100099.06;146606;638;46020;-87
2021/10/12 11:54:00;;;;;;;;;0.00;0.00;;;;;24.83;46.82;100097.44;146608;580;46013;-90
2021/10/12 11:56:37;;;;;;;;;0.00;0.00;;;;;24.80;45.77;100092.19;146607;571;47010;-89
2021/10/12 11:59:12;;;;;;;;;1.33;0.33;;;;;24.77;45.77;100087.78;146605;713;46016;-89
2021/10/12 12:01:47;;;;;;;;;0.67;0.67;;;;;24.66;45.42;100084.44;146608;580;46021;-89
2021/10/12 12:04:35;;;;;;;;;0.00;0.00;;;;;24.54;45.00;100082.84;146605;587;46913;-90